Time;durP1;ratioP1;P1;durP2;ratioP2;P2;SDS_P1;SDS_P2;PMS_P1;PMS_P2;Temp;Humidity;BMP_temperature;BMP_pressure;BME280_temperature;BME280_humidity;BME280_pressure;Samples;Min_cycle;Max_cycle;Signal;HPM_P1;HPM_P2
2021/12/12 00:02:29;;;;;;;78.38;24.70;;;2.60;99.90;;;;;;5044925;28;20109;-74
2021/12/12 00:04:55;;;;;;;79.38;25.80;;;2.60;99.90;;;;;;5035852;23;20152;-91
2021/12/12 00:07:29;;;;;;;76.38;26.10;;;2.60;99.90;;;;;;5019811;28;20474;-90
2021/12/12 00:10:03;;;;;;;87.13;27.77;;;2.60;99.90;;;;;;5002534;28;20022;-90
2021/12/12 00:12:36;;;;;;;87.47;27.52;;;2.60;99.90;;;;;;5001532;28;20033;-90
2021/12/12 00:15:06;;;;;;;79.82;26.95;;;2.50;99.90;;;;;;5000680;28;20021;-91
2021/12/12 00:17:32;;;;;;;84.45;27.50;;;2.50;99.90;;;;;;4999234;28;20033;-90
2021/12/12 00:19:58;;;;;;;81.05;25.52;;;2.50;99.90;;;;;;5001268;28;20032;-89
2021/12/12 00:22:27;;;;;;;86.95;27.95;;;2.50;99.90;;;;;;5035996;28;20053;-90
2021/12/12 00:25:01;;;;;;;84.68;27.73;;;2.50;99.90;;;;;;5003230;28;20028;-90
2021/12/12 00:27:26;;;;;;;91.78;27.70;;;2.50;99.90;;;;;;5006584;28;20021;-91
2021/12/12 00:29:52;;;;;;;89.25;27.40;;;2.50;99.90;;;;;;5006693;28;20053;-91
2021/12/12 00:32:22;;;;;;;88.10;26.17;;;2.50;99.90;;;;;;5046947;28;20021;-89
2021/12/12 00:34:53;;;;;;;94.43;27.08;;;2.50;99.90;;;;;;5014835;28;20009;-90
2021/12/12 00:37:19;;;;;;;84.88;25.55;;;2.50;99.90;;;;;;5012236;28;20037;-89
2021/12/12 00:39:52;;;;;;;91.18;27.23;;;2.50;99.90;;;;;;5016651;28;20101;-89
2021/12/12 00:42:27;;;;;;;91.68;26.27;;;2.50;99.90;;;;;;5016105;28;20025;-91
2021/12/12 00:44:59;;;;;;;80.70;26.40;;;2.50;99.90;;;;;;5017514;28;20029;-91
2021/12/12 00:47:26;;;;;;;94.00;27.45;;;2.60;99.90;;;;;;5011537;28;20017;-90
2021/12/12 00:49:52;;;;;;;85.22;26.92;;;2.60;99.90;;;;;;5008586;28;20017;-90
2021/12/12 00:52:20;;;;;;;78.63;26.25;;;2.60;99.90;;;;;;5007171;28;20032;-91
2021/12/12 00:54:51;;;;;;;82.28;26.50;;;2.60;99.90;;;;;;5006917;28;20036;-90
2021/12/12 00:57:20;;;;;;;88.10;25.60;;;2.60;99.90;;;;;;5008711;28;20101;-89
2021/12/12 00:59:47;;;;;;;81.53;25.52;;;2.60;99.90;;;;;;5005544;28;20047;-89
2021/12/12 01:02:21;;;;;;;74.95;25.63;;;2.60;99.90;;;;;;5003078;28;20071;-91
2021/12/12 01:04:51;;;;;;;84.95;25.48;;;2.70;99.90;;;;;;5020216;28;20087;-90
2021/12/12 01:07:22;;;;;;;75.97;25.08;;;2.70;99.90;;;;;;5037292;28;20033;-90
2021/12/12 01:09:56;;;;;;;71.00;23.42;;;2.70;99.90;;;;;;5005015;28;20037;-90
2021/12/12 01:12:28;;;;;;;82.20;25.80;;;2.70;99.90;;;;;;5005383;28;20041;-89
2021/12/12 01:15:02;;;;;;;76.90;24.88;;;2.70;99.90;;;;;;5036683;28;20025;-90
2021/12/12 01:17:37;;;;;;;82.65;26.48;;;2.70;99.90;;;;;;5005715;28;20025;-90
2021/12/12 01:20:31;;;;;;;75.10;24.50;;;2.80;99.90;;;;;;5002820;28;20040;-91
2021/12/12 01:23:02;;;;;;;67.75;24.27;;;2.70;99.90;;;;;;5045033;28;20025;-90
2021/12/12 01:25:33;;;;;;;71.13;23.75;;;2.80;99.90;;;;;;5008933;28;20033;-90
2021/12/12 01:28:00;;;;;;;;;;;2.80;99.90;;;;;;5052361;28;20030;-90
2021/12/12 01:30:27;;;;;;;69.82;22.80;;;2.80;99.90;;;;;;5007189;28;20122;-90
2021/12/12 01:32:53;;;;;;;73.90;24.35;;;2.80;99.90;;;;;;5005040;28;20437;-90
2021/12/12 01:35:21;;;;;;;85.00;26.52;;;2.80;99.90;;;;;;5004235;28;20071;-90
2021/12/12 01:40:42;;;;;;;83.85;25.13;;;2.80;99.90;;;;;;5031084;28;20029;-88
2021/12/12 01:43:25;;;;;;;75.18;22.58;;;2.80;99.90;;;;;;5014620;28;20029;-89
2021/12/12 01:45:56;;;;;;;81.03;24.60;;;2.80;99.90;;;;;;5003501;28;20109;-89
2021/12/12 01:48:28;;;;;;;87.65;26.23;;;2.80;99.90;;;;;;5004624;28;20026;-89
2021/12/12 01:51:07;;;;;;;70.53;23.13;;;2.80;99.90;;;;;;4999718;28;20025;-90
2021/12/12 01:53:37;;;;;;;71.18;24.55;;;2.90;99.90;;;;;;5021321;28;20026;-88
2021/12/12 01:56:33;;;;;;;80.05;24.88;;;2.90;99.90;;;;;;5024220;28;20105;-87
2021/12/12 01:59:05;;;;;;;80.70;25.33;;;2.90;99.90;;;;;;5047527;28;20034;-89
2021/12/12 02:01:39;;;;;;;71.97;23.73;;;2.80;99.90;;;;;;5004015;28;20117;-90
2021/12/12 02:04:29;;;;;;;86.82;25.35;;;2.80;99.90;;;;;;5008928;28;20025;-89
2021/12/12 02:06:57;;;;;;;69.38;24.33;;;2.80;99.90;;;;;;5028714;28;20048;-90
2021/12/12 02:09:23;;;;;;;65.43;21.60;;;2.90;99.90;;;;;;5020015;28;20017;-90
2021/12/12 02:11:53;;;;;;;70.78;25.52;;;2.90;99.90;;;;;;5011309;28;20045;-90
2021/12/12 02:14:21;;;;;;;74.65;24.30;;;2.90;99.90;;;;;;5002669;28;20025;-91
2021/12/12 02:16:57;;;;;;;71.38;24.45;;;2.90;99.90;;;;;;5003953;28;20517;-90
2021/12/12 02:19:32;;;;;;;67.75;22.52;;;2.90;99.90;;;;;;5001083;28;20034;-90
2021/12/12 02:37:43;;;;;;;64.22;22.63;;;3.10;99.90;;;;;;5055222;28;20025;-91
2021/12/12 02:40:15;;;;;;;63.58;22.00;;;3.10;99.90;;;;;;5001344;28;20026;-90
2021/12/12 02:42:42;;;;;;;57.38;21.52;;;3.10;99.90;;;;;;5001655;28;20116;-89
2021/12/12 02:45:10;;;;;;;57.95;21.80;;;3.20;99.90;;;;;;4999629;28;20021;-90
2021/12/12 02:47:37;;;;;;;61.13;23.10;;;3.20;99.90;;;;;;5035816;28;20111;-89
2021/12/12 02:50:18;;;;;;;61.70;20.75;;;3.10;99.90;;;;;;5003461;28;20025;-90
2021/12/12 02:52:51;;;;;;;61.22;21.60;;;3.20;99.90;;;;;;5013264;28;20061;-90
2021/12/12 02:55:33;;;;;;;59.75;22.45;;;3.20;99.90;;;;;;5005127;28;20032;-89
2021/12/12 02:58:01;;;;;;;56.88;21.23;;;3.20;99.90;;;;;;5000316;28;20033;-90
2021/12/12 03:00:34;;;;;;;62.85;22.83;;;3.20;99.90;;;;;;5002482;28;20410;-91
2021/12/12 03:03:00;;;;;;;60.55;23.13;;;3.20;99.90;;;;;;5004746;28;20074;-90
2021/12/12 03:05:34;;;;;;;55.88;22.17;;;3.30;99.90;;;;;;5005778;28;20079;-90
2021/12/12 03:08:00;;;;;;;58.47;22.98;;;3.20;99.90;;;;;;5028053;28;20097;-91
2021/12/12 03:10:33;;;;;;;63.28;22.42;;;3.30;99.90;;;;;;5002045;28;20075;-89
2021/12/12 03:13:00;;;;;;;54.67;22.77;;;3.30;99.90;;;;;;5035145;28;20021;-90
2021/12/12 03:15:31;;;;;;;55.83;21.13;;;3.30;99.90;;;;;;5002267;28;20105;-90
2021/12/12 03:18:02;;;;;;;57.28;22.35;;;3.40;99.90;;;;;;5000557;28;20422;-90
2021/12/12 03:20:35;;;;;;;55.85;20.50;;;3.40;99.90;;;;;;5035648;28;20025;-90
2021/12/12 03:23:33;;;;;;;51.38;21.13;;;3.40;99.90;;;;;;5001929;28;20033;-89
2021/12/12 03:26:10;;;;;;;47.75;19.40;;;3.50;99.90;;;;;;4999376;28;20607;-90
2021/12/12 03:28:38;;;;;;;56.42;21.42;;;3.50;99.90;;;;;;5003321;28;20033;-90
2021/12/12 03:31:08;;;;;;;44.63;20.25;;;3.50;99.90;;;;;;4999773;28;20025;-89
2021/12/12 03:33:34;;;;;;;55.60;21.45;;;3.50;99.90;;;;;;5002146;28;20491;-89
2021/12/12 03:36:04;;;;;;;55.33;22.60;;;3.50;99.90;;;;;;5001881;28;20030;-90
2021/12/12 03:38:31;;;;;;;53.78;20.98;;;3.50;99.90;;;;;;5019364;28;20034;-90
2021/12/12 03:41:03;;;;;;;53.67;21.30;;;3.50;99.90;;;;;;5001641;28;20025;-89
2021/12/12 03:43:31;;;;;;;54.28;22.35;;;3.60;99.90;;;;;;5031887;28;20490;-90
2021/12/12 03:45:57;;;;;;;57.63;21.00;;;3.60;99.90;;;;;;5000809;28;20140;-90
2021/12/12 03:48:30;;;;;;;51.10;21.58;;;3.60;99.90;;;;;;5000741;28;20022;-90
2021/12/12 03:51:01;;;;;;;57.20;21.88;;;3.60;99.90;;;;;;5019787;28;20025;-90
2021/12/12 03:53:28;;;;;;;;;;;3.60;99.90;;;;;;5007895;28;22427;-89
2021/12/12 03:55:55;;;;;;;51.72;19.00;;;3.60;99.90;;;;;;5013252;28;19909;-89
2021/12/12 03:58:22;;;;;;;59.75;23.02;;;3.70;99.90;;;;;;5007665;28;20537;-90
2021/12/12 04:00:53;;;;;;;57.00;22.15;;;3.70;99.90;;;;;;5001999;28;20125;-89
2021/12/12 04:03:20;;;;;;;55.13;20.98;;;3.70;99.90;;;;;;5000782;28;20049;-90
2021/12/12 04:05:53;;;;;;;61.47;23.00;;;3.70;99.90;;;;;;5000282;28;20034;-89
2021/12/12 04:08:29;;;;;;;59.65;20.63;;;3.80;99.90;;;;;;5014769;28;20079;-89
2021/12/12 04:10:55;;;;;;;53.03;22.02;;;3.80;99.90;;;;;;5007771;28;20045;-90
2021/12/12 04:13:22;;;;;;;60.58;23.63;;;3.70;99.90;;;;;;4997057;28;20021;-90
2021/12/12 04:15:55;;;;;;;61.70;22.50;;;3.80;99.90;;;;;;5031849;28;20022;-90
2021/12/12 04:18:27;;;;;;;61.58;23.52;;;3.80;99.90;;;;;;5033460;28;20049;-90
2021/12/12 04:20:54;;;;;;;55.63;22.15;;;3.80;99.90;;;;;;4998864;28;20386;-90
2021/12/12 04:23:26;;;;;;;60.95;23.20;;;3.90;99.90;;;;;;5007678;28;20092;-89
2021/12/12 04:25:54;;;;;;;61.53;23.50;;;3.90;99.90;;;;;;5004807;28;20032;-89
2021/12/12 04:28:20;;;;;;;62.15;24.33;;;3.80;99.90;;;;;;5018905;28;20025;-89
2021/12/12 04:30:47;;;;;;;62.90;24.83;;;3.90;99.90;;;;;;5035983;28;20772;-89
2021/12/12 04:33:13;;;;;;;69.85;25.80;;;3.90;99.90;;;;;;4996967;28;20021;-89
2021/12/12 04:35:39;;;;;;;69.53;26.30;;;3.90;99.90;;;;;;5004817;28;20044;-89
2021/12/12 04:38:06;;;;;;;82.05;29.05;;;3.90;99.90;;;;;;5000713;28;20033;-90
2021/12/12 04:40:37;;;;;;;67.50;25.77;;;4.00;99.90;;;;;;4997211;28;20042;-90
2021/12/12 04:43:03;;;;;;;71.47;26.73;;;4.00;99.90;;;;;;4997827;28;20026;-90
2021/12/12 04:46:04;;;;;;;83.38;28.85;;;4.00;99.90;;;;;;5000338;28;20029;-90
2021/12/12 04:51:41;;;;;;;81.15;27.83;;;4.00;99.90;;;;;;5067557;28;20525;-90
2021/12/12 04:54:21;;;;;;;77.00;27.40;;;4.00;99.90;;;;;;5022792;28;20029;-89
2021/12/12 04:57:10;;;;;;;70.43;26.50;;;4.10;99.90;;;;;;5020019;28;20021;-90
2021/12/12 04:59:48;;;;;;;65.38;26.30;;;4.10;99.90;;;;;;5023261;28;20096;-88
2021/12/12 05:02:24;;;;;;;80.78;28.00;;;4.10;99.90;;;;;;5054314;28;20022;-89
2021/12/12 05:05:15;;;;;;;80.82;27.10;;;4.10;99.90;;;;;;5051102;28;20068;-90
2021/12/12 05:08:00;;;;;;;;;;;4.20;99.90;;;;;;5010802;28;20025;-89
2021/12/12 05:10:44;;;;;;;75.63;27.48;;;4.20;99.90;;;;;;5038246;28;20003;-89
2021/12/12 05:13:21;;;;;;;73.07;25.58;;;4.20;99.90;;;;;;5027827;28;20096;-91
2021/12/12 05:15:57;;;;;;;81.25;28.45;;;4.20;99.90;;;;;;5001356;28;20029;-91
2021/12/12 05:18:30;;;;;;;78.38;28.80;;;4.20;99.90;;;;;;4998676;28;20049;-88
2021/12/12 05:21:11;;;;;;;73.70;26.95;;;4.20;99.90;;;;;;5002454;28;20034;-89
2021/12/12 05:23:45;;;;;;;75.75;26.35;;;4.30;99.90;;;;;;5032382;28;20036;-92
2021/12/12 05:26:14;;;;;;;62.13;24.83;;;4.30;99.90;;;;;;5003836;28;20045;-92
2021/12/12 05:28:48;;;;;;;74.85;26.95;;;4.30;99.90;;;;;;5008235;28;20116;-92
2021/12/12 05:31:16;;;;;;;70.28;26.00;;;4.30;99.90;;;;;;5038064;28;20096;-92
2021/12/12 05:33:43;;;;;;;69.00;26.65;;;4.30;99.90;;;;;;5004503;28;20101;-90
2021/12/12 05:36:11;;;;;;;65.03;26.60;;;4.30;99.90;;;;;;5016194;28;20130;-90
2021/12/12 05:38:38;;;;;;;68.15;27.67;;;4.30;99.90;;;;;;5025422;28;20092;-90
2021/12/12 05:41:08;;;;;;;66.55;27.13;;;4.30;99.90;;;;;;5000271;28;20486;-90
2021/12/12 05:43:35;;;;;;;72.90;27.17;;;4.30;99.90;;;;;;5004132;28;20517;-90
2021/12/12 05:46:02;;;;;;;71.15;27.55;;;4.30;99.90;;;;;;5002922;28;20113;-91
2021/12/12 05:48:28;;;;;;;67.70;26.33;;;4.30;99.90;;;;;;5003696;28;20029;-91
2021/12/12 05:50:54;;;;;;;74.13;27.48;;;4.30;99.90;;;;;;5004622;28;20037;-90
2021/12/12 05:53:21;;;;;;;63.67;25.40;;;4.30;99.90;;;;;;5031902;28;20021;-91
2021/12/12 05:55:49;;;;;;;73.65;26.08;;;4.40;99.90;;;;;;5013431;28;20025;-90
2021/12/12 05:58:19;;;;;;;71.05;25.60;;;4.30;99.90;;;;;;5014140;28;20035;-90
2021/12/12 06:00:53;;;;;;;68.20;26.10;;;4.30;99.90;;;;;;5006007;28;20124;-91
2021/12/12 06:03:26;;;;;;;68.88;26.60;;;4.30;99.90;;;;;;5003383;28;20017;-90
2021/12/12 06:05:53;;;;;;;59.00;24.33;;;4.40;99.90;;;;;;5015717;28;20045;-90
2021/12/12 06:08:21;;;;;;;65.13;24.83;;;4.40;99.90;;;;;;5008320;28;20474;-92
2021/12/12 06:10:48;;;;;;;64.75;24.30;;;4.40;99.90;;;;;;5005490;28;20037;-90
2021/12/12 06:13:16;;;;;;;60.38;24.17;;;4.40;99.90;;;;;;5003899;28;20029;-91
2021/12/12 06:15:45;;;;;;;65.93;25.98;;;4.40;99.90;;;;;;5012865;28;20156;-91
2021/12/12 06:18:12;;;;;;;69.75;25.75;;;4.40;99.90;;;;;;5019275;28;20061;-91
2021/12/12 06:20:40;;;;;;;66.05;25.15;;;4.40;99.90;;;;;;5002643;28;20041;-91
2021/12/12 06:23:08;;;;;;;63.58;24.17;;;4.50;99.90;;;;;;5004963;28;20105;-88
2021/12/12 06:25:35;;;;;;;67.30;23.65;;;4.40;99.90;;;;;;5004725;28;20033;-91
2021/12/12 06:28:10;;;;;;;57.90;23.02;;;4.50;99.90;;;;;;5011327;28;20017;-91
2021/12/12 06:30:36;;;;;;;59.08;22.70;;;4.50;99.90;;;;;;5010298;28;20037;-89
2021/12/12 06:33:03;;;;;;;59.45;23.23;;;4.40;99.90;;;;;;5002125;28;20021;-91
2021/12/12 06:35:30;;;;;;;66.00;21.70;;;4.50;99.90;;;;;;5002414;28;20022;-90
2021/12/12 06:38:01;;;;;;;58.15;22.52;;;4.40;99.90;;;;;;5001221;28;20022;-91
2021/12/12 06:40:41;;;;;;;;;;;4.50;99.90;;;;;;5000683;28;20482;-90
2021/12/12 06:43:11;;;;;;;56.92;22.50;;;4.50;99.90;;;;;;5000451;28;19995;-90
2021/12/12 06:45:38;;;;;;;59.17;21.17;;;4.50;99.90;;;;;;5001614;28;20032;-91
2021/12/12 06:48:08;;;;;;;58.78;22.20;;;4.40;99.90;;;;;;5001469;28;20056;-91
2021/12/12 06:50:37;;;;;;;58.45;21.45;;;4.40;99.90;;;;;;5001124;28;20029;-88
2021/12/12 06:53:04;;;;;;;58.22;21.25;;;4.40;99.90;;;;;;5004879;28;20031;-89
2021/12/12 06:55:32;;;;;;;54.58;21.80;;;4.40;99.90;;;;;;5003444;28;20029;-89
2021/12/12 06:57:59;;;;;;;52.30;19.73;;;4.40;99.90;;;;;;5004574;28;20116;-88
2021/12/12 07:00:26;;;;;;;52.25;21.02;;;4.40;99.90;;;;;;5010196;28;20102;-88
2021/12/12 07:02:52;;;;;;;49.00;19.70;;;4.40;99.90;;;;;;5005979;28;20116;-89
2021/12/12 07:05:21;;;;;;;59.38;21.55;;;4.40;99.90;;;;;;5001587;28;20033;-89
2021/12/12 07:07:49;;;;;;;54.40;18.75;;;4.40;99.90;;;;;;5020492;28;20060;-88
2021/12/12 07:10:18;;;;;;;50.85;19.30;;;4.40;99.90;;;;;;5001807;28;20886;-91
2021/12/12 07:12:44;;;;;;;47.42;17.63;;;4.40;99.90;;;;;;5034806;28;20105;-88
2021/12/12 07:15:13;;;;;;;51.20;18.73;;;4.40;99.90;;;;;;5011595;28;20038;-91
2021/12/12 07:17:39;;;;;;;52.13;18.38;;;4.40;99.90;;;;;;5011838;28;20021;-90
2021/12/12 07:20:07;;;;;;;45.47;19.45;;;4.40;99.90;;;;;;5045253;28;20029;-91
2021/12/12 07:22:33;;;;;;;51.55;18.80;;;4.40;99.90;;;;;;5000215;28;20066;-91
2021/12/12 07:25:01;;;;;;;50.28;18.05;;;4.40;99.90;;;;;;5033743;28;20021;-91
2021/12/12 07:27:27;;;;;;;54.25;18.58;;;4.40;99.90;;;;;;5009676;28;20029;-90
2021/12/12 07:29:56;;;;;;;42.20;16.60;;;4.40;99.90;;;;;;5004130;28;20030;-91
2021/12/12 07:32:22;;;;;;;54.40;17.88;;;4.40;99.90;;;;;;5001557;28;20025;-91
2021/12/12 07:34:50;;;;;;;46.33;17.67;;;4.30;99.90;;;;;;5000186;28;20112;-88
2021/12/12 07:37:16;;;;;;;55.15;18.55;;;4.40;99.90;;;;;;5000675;28;20029;-89
2021/12/12 07:39:44;;;;;;;49.10;17.67;;;4.30;99.90;;;;;;4998077;28;20395;-89
2021/12/12 07:42:16;;;;;;;43.30;17.73;;;4.30;99.90;;;;;;5001078;28;20059;-91
2021/12/12 07:44:45;;;;;;;46.38;17.15;;;4.30;99.90;;;;;;4998422;28;20108;-89
2021/12/12 07:47:14;;;;;;;48.35;16.73;;;4.30;99.90;;;;;;4998096;28;20025;-90
2021/12/12 07:49:43;;;;;;;40.13;16.30;;;4.30;99.90;;;;;;4993824;28;20036;-90
2021/12/12 07:52:13;;;;;;;37.25;15.85;;;4.40;99.90;;;;;;4997059;28;20474;-90
2021/12/12 07:54:39;;;;;;;38.00;15.55;;;4.40;99.90;;;;;;4998337;28;20029;-90
2021/12/12 07:57:06;;;;;;;39.30;15.73;;;4.40;99.90;;;;;;5015278;28;20033;-89
2021/12/12 07:59:34;;;;;;;44.33;15.68;;;4.40;99.90;;;;;;5016252;28;20021;-89
2021/12/12 08:02:02;;;;;;;36.95;14.98;;;4.40;99.90;;;;;;5012274;28;20083;-89
2021/12/12 08:04:30;;;;;;;44.55;15.90;;;4.40;99.90;;;;;;4997639;28;20029;-88
2021/12/12 08:06:56;;;;;;;39.00;15.13;;;4.40;99.90;;;;;;4999582;28;20061;-90
2021/12/12 08:09:23;;;;;;;41.28;15.85;;;4.40;99.90;;;;;;4999003;28;20108;-88
2021/12/12 08:11:49;;;;;;;42.08;16.35;;;4.40;99.90;;;;;;5030743;28;20030;-88
2021/12/12 08:14:20;;;;;;;41.15;15.23;;;4.40;99.90;;;;;;4993788;28;20022;-87
2021/12/12 08:16:47;;;;;;;41.45;15.23;;;4.40;99.90;;;;;;5002043;28;20025;-87
2021/12/12 08:19:14;;;;;;;44.33;15.63;;;4.40;99.90;;;;;;5010956;28;20100;-88
2021/12/12 08:21:40;;;;;;;38.88;14.65;;;4.40;99.90;;;;;;5002715;28;20157;-88
2021/12/12 08:24:10;;;;;;;41.97;15.02;;;4.40;99.90;;;;;;4992213;28;20041;-88
2021/12/12 08:26:39;;;;;;;36.15;15.57;;;4.40;99.90;;;;;;5020271;28;20592;-87
2021/12/12 08:29:10;;;;;;;34.97;14.80;;;4.50;99.90;;;;;;4992350;28;20187;-88
2021/12/12 08:31:36;;;;;;;45.38;16.17;;;4.40;99.90;;;;;;4994407;28;20051;-87
2021/12/12 08:34:08;;;;;;;43.63;15.85;;;4.40;99.90;;;;;;4994123;28;20030;-88
2021/12/12 08:36:36;;;;;;;40.63;15.32;;;4.40;99.90;;;;;;4997540;28;20815;-88
2021/12/12 08:39:05;;;;;;;42.55;15.90;;;4.40;99.90;;;;;;5029499;28;20036;-90
2021/12/12 08:41:31;;;;;;;37.15;15.55;;;4.40;99.90;;;;;;4994602;28;20029;-88
2021/12/12 08:43:57;;;;;;;46.08;16.73;;;4.40;99.90;;;;;;4992423;28;20029;-90
2021/12/12 08:46:24;;;;;;;35.25;15.35;;;4.40;99.90;;;;;;4993006;28;20029;-90
2021/12/12 08:48:52;;;;;;;44.38;16.50;;;4.40;99.90;;;;;;4993964;28;20093;-90
2021/12/12 08:51:25;;;;;;;40.78;14.73;;;4.40;99.90;;;;;;5026322;28;20030;-91
2021/12/12 08:53:55;;;;;;;43.63;15.95;;;4.50;99.90;;;;;;5013365;28;20418;-90
2021/12/12 08:56:40;;;;;;;41.25;14.50;;;4.50;99.90;;;;;;5010592;28;20056;-90
2021/12/12 08:59:07;;;;;;;50.75;16.30;;;4.50;99.90;;;;;;5001774;28;20030;-90
2021/12/12 09:01:33;;;;;;;42.25;15.48;;;4.40;99.90;;;;;;5005539;28;20069;-90
2021/12/12 09:04:05;;;;;;;45.05;14.82;;;4.50;99.90;;;;;;5018112;28;20029;-90
2021/12/12 09:06:41;;;;;;;42.13;14.75;;;4.50;99.90;;;;;;5003647;28;20147;-90
2021/12/12 09:09:18;;;;;;;36.83;14.05;;;4.50;99.90;;;;;;4996861;28;20025;-89
2021/12/12 09:11:51;;;;;;;35.13;12.90;;;4.50;99.90;;;;;;5030986;28;20078;-91
2021/12/12 09:14:42;;;;;;;34.75;12.65;;;4.50;99.90;;;;;;5033729;28;20545;-90
2021/12/12 09:17:43;;;;;;;23.60;9.27;;;4.50;99.90;;;;;;5004424;28;20057;-91
2021/12/12 09:20:15;;;;;;;27.00;9.80;;;4.60;99.90;;;;;;4997001;28;20029;-89
2021/12/12 09:23:00;;;;;;;22.88;9.13;;;4.60;99.90;;;;;;5015257;28;20037;-92
2021/12/12 09:25:43;;;;;;;25.40;9.63;;;4.70;99.90;;;;;;5006475;28;20041;-91
2021/12/12 09:28:27;;;;;;;28.97;10.17;;;4.70;99.90;;;;;;5040589;28;20116;-91
2021/12/12 09:30:56;;;;;;;23.80;9.40;;;4.80;99.90;;;;;;5037141;28;20036;-92
2021/12/12 09:33:47;;;;;;;19.58;8.60;;;4.80;99.90;;;;;;5005143;28;20030;-90
2021/12/12 09:36:18;;;;;;;22.75;8.27;;;4.80;99.90;;;;;;5034899;28;20033;-90
2021/12/12 09:38:59;;;;;;;16.80;7.50;;;4.80;99.90;;;;;;5001571;28;20193;-89
2021/12/12 09:41:33;;;;;;;14.27;6.63;;;4.80;99.90;;;;;;5020901;28;20072;-90
2021/12/12 09:44:29;;;;;;;17.17;6.38;;;4.90;99.90;;;;;;5007671;28;20560;-90
2021/12/12 09:47:29;;;;;;;13.77;5.72;;;4.90;99.90;;;;;;5033157;28;20087;-89
2021/12/12 09:53:48;;;;;;;11.10;5.35;;;4.90;99.90;;;;;;5057238;28;20089;-89
2021/12/12 09:56:40;;;;;;;12.35;5.22;;;4.90;99.90;;;;;;5034234;28;20478;-89
2021/12/12 09:59:32;;;;;;;14.30;5.13;;;4.90;99.90;;;;;;5001791;28;20026;-91
2021/12/12 10:02:09;;;;;;;10.57;5.05;;;4.90;99.90;;;;;;5001435;28;20355;-89
2021/12/12 10:05:01;;;;;;;9.88;5.72;;;4.90;99.90;;;;;;5002921;28;20038;-90
2021/12/12 10:07:50;;;;;;;11.45;5.90;;;5.00;99.90;;;;;;5033552;28;20029;-92
2021/12/12 10:10:25;;;;;;;11.57;4.80;;;5.00;99.90;;;;;;5002102;28;20088;-90
2021/12/12 10:13:12;;;;;;;12.65;6.00;;;5.00;99.90;;;;;;5002236;28;20033;-92
2021/12/12 10:15:44;;;;;;;12.07;5.53;;;5.00;99.90;;;;;;5013544;28;20029;-91
2021/12/12 10:18:20;;;;;;;9.63;5.55;;;5.00;99.90;;;;;;5043179;28;20021;-90
2021/12/12 10:21:04;;;;;;;11.85;5.35;;;5.00;99.90;;;;;;5017180;28;20029;-91
2021/12/12 10:23:48;;;;;;;11.82;4.75;;;5.10;99.90;;;;;;5000964;28;20488;-89
2021/12/12 10:26:37;;;;;;;8.90;5.00;;;5.10;99.90;;;;;;4999931;28;20473;-91
2021/12/12 10:29:26;;;;;;;10.95;4.28;;;5.10;99.90;;;;;;5016905;28;20036;-89
2021/12/12 10:32:03;;;;;;;9.90;5.00;;;5.20;99.90;;;;;;5041428;28;20494;-91
2021/12/12 10:34:44;;;;;;;9.07;5.50;;;5.10;99.90;;;;;;5038990;28;20037;-92
2021/12/12 10:37:10;;;;;;;;;;;5.10;99.90;;;;;;5013558;28;20025;-90
2021/12/12 10:40:06;;;;;;;10.32;5.25;;;5.10;99.90;;;;;;5028713;28;20313;-90
2021/12/12 10:42:39;;;;;;;8.27;4.80;;;5.10;99.90;;;;;;5008577;28;20041;-90
2021/12/12 10:45:10;;;;;;;11.27;5.10;;;5.10;99.90;;;;;;4998604;28;20044;-90
2021/12/12 10:47:45;;;;;;;10.10;5.45;;;5.10;99.90;;;;;;5005202;28;20044;-90
2021/12/12 10:50:23;;;;;;;16.17;5.15;;;5.20;99.90;;;;;;5005567;28;20025;-91
2021/12/12 10:53:03;;;;;;;13.90;5.53;;;5.10;99.90;;;;;;5005163;28;20060;-91
2021/12/12 10:55:34;;;;;;;11.93;5.47;;;5.10;99.90;;;;;;5039950;28;20010;-89
2021/12/12 10:58:14;;;;;;;9.20;4.95;;;5.10;99.90;;;;;;5004143;28;20017;-90
2021/12/12 11:00:45;;;;;;;7.13;4.90;;;5.10;99.90;;;;;;5017691;28;20051;-88
2021/12/12 11:03:16;;;;;;;;;;;5.10;99.90;;;;;;5038134;28;20025;-86
2021/12/12 11:05:47;;;;;;;9.90;4.05;;;5.10;99.90;;;;;;5030202;28;19920;-90
2021/12/12 11:08:30;;;;;;;9.80;5.32;;;5.10;99.90;;;;;;5014592;28;20053;-90
2021/12/12 11:10:58;;;;;;;13.50;4.55;;;5.20;99.90;;;;;;5004649;28;20056;-89
2021/12/12 11:13:39;;;;;;;6.93;5.00;;;5.20;99.90;;;;;;5001192;28;20029;-89
2021/12/12 11:16:10;;;;;;;8.43;4.97;;;5.20;99.90;;;;;;5004304;28;20121;-89
2021/12/12 11:18:57;;;;;;;8.27;5.20;;;5.20;99.90;;;;;;5004588;28;20033;-90
2021/12/12 11:21:30;;;;;;;9.30;5.63;;;5.20;99.90;;;;;;5033143;28;20510;-92
2021/12/12 11:24:22;;;;;;;7.43;4.50;;;5.20;99.90;;;;;;5035922;28;20033;-90
2021/12/12 11:27:06;;;;;;;8.32;4.55;;;5.20;99.90;;;;;;5036415;28;20033;-91
2021/12/12 11:29:42;;;;;;;7.63;4.38;;;5.20;99.90;;;;;;5006944;28;20033;-91
2021/12/12 11:32:17;;;;;;;10.75;5.40;;;5.20;99.90;;;;;;5022888;28;20040;-91
2021/12/12 11:34:46;;;;;;;9.10;5.40;;;5.20;99.90;;;;;;5006680;28;20033;-90
2021/12/12 11:37:21;;;;;;;7.72;4.82;;;5.20;99.90;;;;;;5005258;28;20033;-91
2021/12/12 11:40:11;;;;;;;12.18;6.35;;;5.20;99.90;;;;;;5028291;28;20025;-90
2021/12/12 11:42:51;;;;;;;9.50;5.65;;;5.20;99.90;;;;;;5004639;28;20242;-90
2021/12/12 11:45:43;;;;;;;8.90;5.05;;;5.30;99.90;;;;;;5034947;28;20028;-91
2021/12/12 11:48:21;;;;;;;8.52;5.38;;;5.30;99.90;;;;;;5022679;28;20036;-91
2021/12/12 11:51:07;;;;;;;8.15;5.20;;;5.30;99.90;;;;;;5005607;28;20121;-91
2021/12/12 11:53:48;;;;;;;12.52;6.30;;;5.30;99.90;;;;;;5002142;28;20056;-90
2021/12/12 11:56:45;;;;;;;14.15;5.90;;;5.30;99.90;;;;;;5004046;28;20049;-91
2021/12/12 11:59:25;;;;;;;10.05;5.28;;;5.30;99.90;;;;;;5006000;28;20029;-90
2021/12/12 12:02:03;;;;;;;11.25;5.75;;;5.40;99.90;;;;;;5003300;28;20509;-91
2021/12/12 12:04:54;;;;;;;9.45;6.57;;;5.40;99.90;;;;;;5004938;28;20025;-90
2021/12/12 12:07:59;;;;;;;9.57;6.05;;;5.40;99.90;;;;;;5021088;28;20056;-91
2021/12/12 12:10:56;;;;;;;10.50;6.07;;;5.40;99.90;;;;;;5006926;28;20044;-92
2021/12/12 12:13:54;;;;;;;;;;;;;;;;;;;;;
2021/12/12 12:16:47;;;;;;;10.13;6.40;;;5.40;99.90;;;;;;5024283;28;20034;-92
2021/12/12 12:19:42;;;;;;;10.38;6.00;;;5.40;99.90;;;;;;5036099;28;20032;-91
2021/12/12 12:22:08;;;;;;;9.80;6.53;;;5.40;99.90;;;;;;5004754;28;20099;-91
2021/12/12 12:25:15;;;;;;;11.20;6.97;;;5.50;99.90;;;;;;5005497;28;20030;-91
2021/12/12 12:27:55;;;;;;;15.43;7.60;;;5.50;99.90;;;;;;5027162;28;20120;-91
2021/12/12 12:30:30;;;;;;;14.83;7.10;;;5.50;99.90;;;;;;5004930;28;20052;-91
2021/12/12 12:33:41;;;;;;;12.48;6.97;;;5.50;99.90;;;;;;5005026;28;20030;-90
2021/12/12 12:36:27;;;;;;;14.73;8.18;;;5.50;99.90;;;;;;5005427;28;20036;-90
2021/12/12 12:39:23;;;;;;;14.60;7.63;;;5.60;99.90;;;;;;5009445;28;20026;-90
2021/12/12 12:42:02;;;;;;;15.27;7.55;;;5.60;99.90;;;;;;5040296;28;20099;-91
2021/12/12 12:45:05;;;;;;;13.45;7.72;;;5.60;99.90;;;;;;5015586;28;20050;-91
2021/12/12 12:48:01;;;;;;;11.77;8.15;;;5.60;99.90;;;;;;5010672;28;20044;-93
2021/12/12 12:50:52;;;;;;;13.20;7.47;;;5.60;99.90;;;;;;5009282;28;20030;-92
2021/12/12 12:53:23;;;;;;;11.15;7.57;;;5.60;99.90;;;;;;5013010;28;20083;-92
2021/12/12 12:56:26;;;;;;;10.13;7.47;;;5.60;99.90;;;;;;5012406;28;20029;-93
2021/12/12 12:59:37;;;;;;;9.63;6.82;;;5.60;99.90;;;;;;5014533;28;20030;-92
2021/12/12 13:02:22;;;;;;;12.00;7.20;;;5.70;99.90;;;;;;5042091;28;20049;-92
2021/12/12 13:05:00;;;;;;;11.23;7.35;;;5.70;99.90;;;;;;5008191;28;20037;-91
2021/12/12 13:07:58;;;;;;;10.63;7.13;;;5.70;99.90;;;;;;5005646;28;20030;-91
2021/12/12 13:10:31;;;;;;;14.60;8.25;;;5.70;99.90;;;;;;5040361;28;20025;-91
2021/12/12 13:13:22;;;;;;;10.65;7.20;;;5.70;99.90;;;;;;5007520;28;20128;-90
2021/12/12 13:16:08;;;;;;;14.02;7.78;;;5.70;99.90;;;;;;5011406;28;20047;-92
2021/12/12 13:19:19;;;;;;;14.45;8.32;;;5.80;99.90;;;;;;5047027;28;20038;-91
2021/12/12 13:22:03;;;;;;;13.50;8.63;;;5.80;99.90;;;;;;5015078;28;20596;-91
2021/12/12 13:25:27;;;;;;;14.60;8.98;;;5.80;99.90;;;;;;5009438;28;20026;-91
2021/12/12 13:28:41;;;;;;;12.95;8.07;;;5.80;99.90;;;;;;4917410;29;20075;-93
2021/12/12 13:31:20;;;;;;;14.20;8.43;;;5.90;99.90;;;;;;4958302;29;20035;-89
2021/12/12 13:34:08;;;;;;;15.30;9.00;;;5.90;99.90;;;;;;4931096;29;20134;-90
2021/12/12 13:36:41;;;;;;;12.52;7.93;;;5.90;99.90;;;;;;4937280;29;20115;-90
2021/12/12 13:39:31;;;;;;;12.30;7.35;;;5.90;99.90;;;;;;4935966;29;20035;-91
2021/12/12 13:42:21;;;;;;;11.15;7.20;;;6.00;99.90;;;;;;4945850;29;20284;-91
2021/12/12 13:45:02;;;;;;;10.70;7.32;;;6.00;99.90;;;;;;4937986;29;20036;-92
2021/12/12 13:48:04;;;;;;;13.35;7.88;;;6.00;99.90;;;;;;4942600;29;20171;-90
2021/12/12 13:50:43;;;;;;;13.73;7.82;;;6.10;99.90;;;;;;4924930;29;20047;-91